createdAt,value
2022-10-17T00:00:56.511Z,98746.09
2022-10-17T00:03:23.617Z,98735.22
2022-10-17T00:05:50.599Z,98748.16
2022-10-17T00:08:19.023Z,98744.97
2022-10-17T00:10:55.758Z,98737.78
2022-10-17T00:13:22.773Z,98751.34
2022-10-17T00:15:49.785Z,98742.69
2022-10-17T00:18:16.764Z,98746.88
2022-10-17T00:20:43.781Z,98748.78
2022-10-17T00:23:10.815Z,98748.50
2022-10-17T00:25:37.739Z,98748.38
2022-10-17T00:28:04.725Z,98751.91
2022-10-17T00:30:32.798Z,98758.06
2022-10-17T00:32:59.716Z,98753.53
2022-10-17T00:35:26.653Z,98757.53
2022-10-17T00:37:53.601Z,98761.16
2022-10-17T00:40:20.615Z,98763.72
2022-10-17T00:42:48.107Z,98771.75
2022-10-17T00:45:21.181Z,98765.53
2022-10-17T00:47:56.253Z,98765.59
2022-10-17T00:50:24.310Z,98763.63
2022-10-17T00:52:52.765Z,98760.22
2022-10-17T00:55:29.249Z,98762.09
2022-10-17T00:57:58.161Z,98770.78
2022-10-17T01:00:25.648Z,98772.44
2022-10-17T01:02:52.871Z,98762.91
2022-10-17T01:05:20.374Z,98765.88
2022-10-17T01:07:49.891Z,98757.97
2022-10-17T01:10:17.803Z,98760.88
2022-10-17T01:12:52.386Z,98762.59
2022-10-17T01:15:43.641Z,98754.47
2022-10-17T01:18:33.714Z,98753.88
2022-10-17T01:21:41.021Z,98761.91
2022-10-17T01:24:16.514Z,98765.47
2022-10-17T01:27:33.325Z,98755.31
2022-10-17T01:30:16.221Z,98755.88
2022-10-17T01:32:52.810Z,98752.56
2022-10-17T01:35:50.297Z,98745.47
2022-10-17T01:38:42.570Z,98753.81
2022-10-17T01:41:43.829Z,98753.97
2022-10-17T01:44:48.753Z,98750.13
2022-10-17T01:47:21.986Z,98753.34
2022-10-17T01:49:51.922Z,98760.47
2022-10-17T01:52:25.315Z,98758.91
2022-10-17T01:55:06.575Z,98756.94
2022-10-17T01:57:42.818Z,98756.47
2022-10-17T02:00:15.467Z,98757.91
2022-10-17T02:02:45.502Z,98761.00
2022-10-17T02:07:42.120Z,98758.78
2022-10-17T02:10:26.377Z,98764.94
2022-10-17T02:13:25.634Z,98750.31
2022-10-17T02:16:22.044Z,98755.38
2022-10-17T02:18:57.729Z,98758.56
2022-10-17T02:21:46.234Z,98760.56
2022-10-17T02:26:57.680Z,98752.78
2022-10-17T02:30:03.993Z,98756.81
2022-10-17T02:33:01.681Z,98751.81
2022-10-17T02:35:33.476Z,98756.91
2022-10-17T02:38:03.767Z,98758.00
2022-10-17T02:40:31.994Z,98764.09
2022-10-17T02:43:03.251Z,98765.63
2022-10-17T02:45:35.846Z,98762.03
2022-10-17T02:48:25.547Z,98761.44
2022-10-17T02:51:19.316Z,98759.66
2022-10-17T02:53:54.253Z,98761.66
2022-10-17T02:56:22.045Z,98764.09
2022-10-17T02:58:58.484Z,98768.56
2022-10-17T03:01:26.497Z,98766.34
2022-10-17T03:04:12.907Z,98762.47
2022-10-17T03:06:41.441Z,98767.75
2022-10-17T03:09:08.846Z,98771.31
2022-10-17T03:11:35.764Z,98768.44
2022-10-17T03:14:02.720Z,98765.63
2022-10-17T03:16:29.849Z,98768.06
2022-10-17T03:18:56.826Z,98770.66
2022-10-17T03:21:23.786Z,98769.97
2022-10-17T03:23:52.060Z,98778.63
2022-10-17T03:26:21.073Z,98781.97
2022-10-17T03:28:50.670Z,98791.16
2022-10-17T03:31:20.896Z,98788.91
2022-10-17T03:33:50.100Z,98776.69
2022-10-17T03:36:19.160Z,98786.53
2022-10-17T03:38:48.192Z,98782.13
2022-10-17T03:41:16.981Z,98783.63
2022-10-17T03:43:43.922Z,98784.59
2022-10-17T03:46:10.931Z,98784.44
2022-10-17T03:48:38.434Z,98790.38
2022-10-17T03:51:09.487Z,98783.72
2022-10-17T03:53:44.696Z,98791.19
2022-10-17T03:56:23.453Z,98781.16
2022-10-17T03:58:57.195Z,98792.66
2022-10-17T04:01:24.822Z,98786.81
2022-10-17T04:03:55.216Z,98793.00
2022-10-17T04:06:23.152Z,98791.25
2022-10-17T04:08:50.644Z,98798.19
2022-10-17T04:11:22.889Z,98800.75
2022-10-17T04:13:55.679Z,98796.03
2022-10-17T04:16:23.887Z,98791.00
2022-10-17T04:18:59.608Z,98799.88
2022-10-17T04:21:29.886Z,98797.69
2022-10-17T04:24:01.179Z,98801.19
2022-10-17T04:26:42.766Z,98800.69
2022-10-17T04:29:11.638Z,98806.84
2022-10-17T04:31:39.742Z,98804.25
2022-10-17T04:34:48.087Z,98807.59
2022-10-17T04:37:15.568Z,98820.84
2022-10-17T04:39:44.076Z,98817.91
2022-10-17T04:42:11.213Z,98816.25
2022-10-17T04:44:38.264Z,98829.88
2022-10-17T04:47:05.259Z,98829.88
2022-10-17T04:49:32.320Z,98830.66
2022-10-17T04:52:07.522Z,98824.38
2022-10-17T04:54:43.544Z,98824.13
2022-10-17T04:57:12.977Z,98822.91
2022-10-17T04:59:41.262Z,98828.44
2022-10-17T05:02:22.689Z,98828.69
2022-10-17T05:04:50.806Z,98832.44
2022-10-17T05:07:17.963Z,98829.97
2022-10-17T05:09:58.920Z,98828.09
2022-10-17T05:12:26.849Z,98825.97
2022-10-17T05:14:54.311Z,98829.50
2022-10-17T05:17:22.827Z,98830.34
2022-10-17T05:19:50.152Z,98835.91
2022-10-17T05:22:17.255Z,98838.59
2022-10-17T05:24:44.326Z,98834.47
2022-10-17T05:27:11.832Z,98834.91
2022-10-17T05:29:39.748Z,98832.06
2022-10-17T05:32:16.269Z,98839.78
2022-10-17T05:34:43.585Z,98833.31
2022-10-17T05:37:11.180Z,98835.41
2022-10-17T05:39:39.369Z,98834.72
2022-10-17T05:42:07.865Z,98843.56
2022-10-17T05:44:35.807Z,98852.25
2022-10-17T05:47:03.118Z,98854.72
2022-10-17T05:49:44.695Z,98858.84
2022-10-17T05:52:13.717Z,98859.25
2022-10-17T05:54:55.344Z,98865.03
2022-10-17T05:57:26.265Z,98867.44
2022-10-17T05:59:55.018Z,98859.88
2022-10-17T06:02:22.215Z,98866.25
2022-10-17T06:04:50.350Z,98859.25
2022-10-17T06:07:19.309Z,98854.75
2022-10-17T06:09:47.412Z,98865.19
2022-10-17T06:12:15.255Z,98865.22
2022-10-17T06:14:43.713Z,98867.03
2022-10-17T06:17:16.079Z,98878.66
2022-10-17T06:19:44.971Z,98886.88
2022-10-17T06:22:14.616Z,98879.78
2022-10-17T06:24:42.438Z,98870.19
2022-10-17T06:27:11.935Z,98869.72
2022-10-17T06:29:40.545Z,98879.56
2022-10-17T06:32:09.977Z,98876.09
2022-10-17T06:34:40.733Z,98876.06
2022-10-17T06:37:07.771Z,98884.31
2022-10-17T06:39:36.633Z,98884.06
2022-10-17T06:42:07.990Z,98884.31
2022-10-17T06:44:46.405Z,98890.91
2022-10-17T06:47:37.675Z,98894.69
2022-10-17T06:50:16.951Z,98898.47
2022-10-17T06:53:02.620Z,98902.13
2022-10-17T06:55:53.896Z,98910.38
2022-10-17T06:58:32.203Z,98914.88
2022-10-17T07:01:15.545Z,98911.94
2022-10-17T07:03:48.541Z,98913.50
2022-10-17T07:06:16.015Z,98920.97
2022-10-17T07:08:45.229Z,98923.00
2022-10-17T07:11:20.602Z,98916.91
2022-10-17T07:13:49.866Z,98915.94
2022-10-17T07:16:17.348Z,98921.53
2022-10-17T07:18:50.756Z,98921.69
2022-10-17T07:21:18.847Z,98925.59
2022-10-17T07:23:46.323Z,98924.41
2022-10-17T07:26:16.064Z,98916.19
2022-10-17T07:28:46.301Z,98919.88
2022-10-17T07:31:25.572Z,98911.25
2022-10-17T07:33:52.537Z,98911.09
2022-10-17T07:36:20.567Z,98916.00
2022-10-17T07:38:47.674Z,98916.41
2022-10-17T07:41:19.190Z,98905.69
2022-10-17T07:43:49.095Z,98909.75
2022-10-17T07:46:20.161Z,98912.03
2022-10-17T07:48:47.522Z,98911.66
2022-10-17T07:51:14.687Z,98909.56
2022-10-17T07:53:46.422Z,98916.69
2022-10-17T07:56:15.937Z,98923.34
2022-10-17T07:58:42.938Z,98929.28
2022-10-17T08:01:15.405Z,98942.31
2022-10-17T08:03:45.254Z,98944.09
2022-10-17T08:06:13.083Z,98952.44
2022-10-17T08:08:40.996Z,98932.47
2022-10-17T08:11:12.099Z,98922.63
2022-10-17T08:13:40.546Z,98956.34
2022-10-17T08:16:10.769Z,98939.41
2022-10-17T08:18:42.227Z,98937.59
2022-10-17T08:21:10.116Z,98933.78
2022-10-17T08:23:37.862Z,98931.19
2022-10-17T08:26:10.309Z,98935.06
2022-10-17T08:28:41.061Z,98944.59
2022-10-17T08:31:15.531Z,98955.47
2022-10-17T08:33:42.934Z,98936.63
2022-10-17T08:36:10.346Z,98944.06
2022-10-17T08:38:43.048Z,98944.25
2022-10-17T08:41:43.396Z,98967.53
2022-10-17T08:44:47.525Z,98950.22
2022-10-17T08:47:21.264Z,98946.69
2022-10-17T08:49:57.345Z,98972.13
2022-10-17T08:52:53.974Z,98961.31
2022-10-17T08:55:48.279Z,98966.38
2022-10-17T08:58:21.187Z,98963.31
2022-10-17T09:01:29.367Z,98961.47
2022-10-17T09:04:43.223Z,98963.41
2022-10-17T09:07:57.807Z,98972.69
2022-10-17T09:10:53.929Z,98952.84
2022-10-17T09:14:17.417Z,98954.13
2022-10-17T09:17:08.613Z,98960.31
2022-10-17T09:19:44.993Z,98966.38
2022-10-17T09:22:21.793Z,98953.69
2022-10-17T09:24:56.305Z,98961.56
2022-10-17T09:27:44.731Z,98962.69
2022-10-17T09:30:44.725Z,98972.09
2022-10-17T09:33:28.432Z,98958.31
2022-10-17T09:36:09.594Z,98954.91
2022-10-17T09:38:53.492Z,98959.25
2022-10-17T09:41:44.722Z,98961.94
2022-10-17T09:44:24.650Z,98962.53
2022-10-17T09:47:22.128Z,98970.72
2022-10-17T09:49:50.299Z,98964.41
2022-10-17T09:52:35.614Z,98963.44
2022-10-17T09:55:18.255Z,98959.34
2022-10-17T09:57:58.359Z,98957.22
2022-10-17T10:00:36.470Z,98961.59
2022-10-17T10:03:10.941Z,98958.91
2022-10-17T10:05:38.168Z,98958.31
2022-10-17T10:08:19.570Z,98950.75
2022-10-17T10:10:46.925Z,98947.97
2022-10-17T10:13:13.714Z,98948.97
2022-10-17T10:15:44.643Z,98943.28
2022-10-17T10:21:18.374Z,98946.16
2022-10-17T10:24:12.388Z,98938.47
2022-10-17T10:26:46.341Z,98945.94
2022-10-17T10:29:32.172Z,98938.50
2022-10-17T10:32:18.802Z,98942.22
2022-10-17T10:35:18.930Z,98944.63
2022-10-17T10:37:54.299Z,98940.31
2022-10-17T10:40:33.472Z,98947.47
2022-10-17T10:43:05.369Z,98951.28
2022-10-17T10:45:54.127Z,98955.25
2022-10-17T10:48:34.545Z,98955.31
2022-10-17T10:51:09.762Z,98962.81
2022-10-17T10:53:59.504Z,98968.38
2022-10-17T10:56:34.226Z,98963.09
2022-10-17T10:59:19.280Z,98975.25
2022-10-17T11:01:46.169Z,98967.44
2022-10-17T11:04:29.526Z,98966.34
2022-10-17T11:07:24.938Z,98964.41
2022-10-17T11:10:15.243Z,98957.13
2022-10-17T11:13:09.909Z,98955.66
2022-10-17T11:16:02.386Z,98950.50
2022-10-17T11:18:39.442Z,98955.75
2022-10-17T11:21:23.791Z,98945.25
2022-10-17T11:24:24.928Z,98950.00
2022-10-17T11:27:03.196Z,98943.16
2022-10-17T11:29:39.683Z,98940.53
2022-10-17T11:32:21.376Z,98941.91
2022-10-17T11:34:51.313Z,98937.94
2022-10-17T11:37:24.389Z,98942.91
2022-10-17T11:39:58.772Z,98933.88
2022-10-17T11:42:42.071Z,98931.16
2022-10-17T11:45:17.275Z,98934.41
2022-10-17T11:47:54.200Z,98927.22
2022-10-17T11:53:31.517Z,98930.44
2022-10-17T11:56:00.674Z,98926.50
2022-10-17T11:58:39.551Z,98925.78
2022-10-17T12:01:10.799Z,98925.50
2022-10-17T12:04:17.846Z,98930.00
2022-10-17T12:07:25.575Z,98926.19
2022-10-17T12:10:37.061Z,98931.88
2022-10-17T12:13:48.232Z,98930.38
2022-10-17T12:16:21.243Z,98918.16
2022-10-17T12:19:11.097Z,98918.09
2022-10-17T12:21:59.156Z,98914.19
2022-10-17T12:24:37.705Z,98925.38
2022-10-17T12:27:38.683Z,98914.69
2022-10-17T12:30:12.525Z,98916.00
2022-10-17T12:36:27.633Z,98913.56
2022-10-17T12:39:03.743Z,98908.72
2022-10-17T12:41:41.151Z,98915.25
2022-10-17T12:44:14.787Z,98910.34
2022-10-17T12:46:58.644Z,98909.47
2022-10-17T12:49:39.400Z,98921.94
2022-10-17T12:52:35.132Z,98919.13
2022-10-17T12:55:18.105Z,98918.38
2022-10-17T12:58:05.781Z,98926.03
2022-10-17T13:01:22.577Z,98932.94
2022-10-17T13:03:51.919Z,98921.41
2022-10-17T13:06:27.908Z,98916.56
2022-10-17T13:09:10.651Z,98920.78
2022-10-17T13:11:41.274Z,98931.50
2022-10-17T13:14:14.823Z,98919.94
2022-10-17T13:16:59.949Z,98925.09
2022-10-17T13:19:33.565Z,98926.06
2022-10-17T13:22:07.338Z,98941.22
2022-10-17T13:24:38.901Z,98934.97
2022-10-17T13:27:22.239Z,98934.13
2022-10-17T13:29:52.888Z,98951.44
2022-10-17T13:32:20.228Z,98946.78
2022-10-17T13:35:14.930Z,98952.72
2022-10-17T13:37:48.194Z,98959.97
2022-10-17T13:40:44.579Z,98962.28
2022-10-17T13:43:24.388Z,98956.69
2022-10-17T13:46:19.190Z,98962.22
2022-10-17T13:48:51.575Z,98968.03
2022-10-17T13:51:23.757Z,98974.91
2022-10-17T13:53:51.116Z,98967.53
2022-10-17T13:56:32.419Z,98969.22
2022-10-17T13:59:24.413Z,98973.72
2022-10-17T14:01:53.052Z,98968.72
2022-10-17T14:04:22.800Z,98978.63
2022-10-17T14:06:52.249Z,98968.94
2022-10-17T14:09:28.986Z,98982.00
2022-10-17T14:12:12.799Z,98981.00
2022-10-17T14:15:05.549Z,98986.00
2022-10-17T14:17:31.792Z,98981.16
2022-10-17T14:23:17.621Z,98981.25
2022-10-17T14:28:26.737Z,98979.66
2022-10-17T14:30:57.436Z,98987.88
2022-10-17T14:33:29.863Z,98986.63
2022-10-17T14:36:00.589Z,98981.72
2022-10-17T14:38:29.576Z,98985.09
2022-10-17T14:41:43.281Z,98981.81
2022-10-17T14:44:23.650Z,98986.81
2022-10-17T14:46:59.548Z,98990.44
2022-10-17T14:49:40.652Z,98994.19
2022-10-17T14:52:18.200Z,98993.53
2022-10-17T14:54:50.274Z,98993.28
2022-10-17T14:57:27.083Z,98994.06
2022-10-17T14:59:57.950Z,99004.03
2022-10-17T15:02:30.747Z,99005.50
2022-10-17T15:05:00.896Z,99009.50
2022-10-17T15:07:28.319Z,99012.72
2022-10-17T15:09:55.610Z,99008.34
2022-10-17T15:12:25.527Z,99011.44
2022-10-17T15:14:56.803Z,99001.22
2022-10-17T15:17:29.330Z,99000.25
2022-10-17T15:19:57.266Z,98993.78
2022-10-17T15:22:25.107Z,98998.63
2022-10-17T15:24:52.190Z,99005.03
2022-10-17T15:27:26.393Z,99000.50
2022-10-17T15:29:53.448Z,99005.31
2022-10-17T15:32:20.609Z,99011.97
2022-10-17T15:34:47.599Z,99009.78
2022-10-17T15:37:22.841Z,99018.16
2022-10-17T15:39:54.966Z,99007.97
2022-10-17T15:42:27.726Z,99009.25
2022-10-17T15:44:55.783Z,99004.41
2022-10-17T15:47:25.405Z,99000.78
2022-10-17T15:49:53.854Z,99003.97
2022-10-17T15:52:21.826Z,98994.66
2022-10-17T15:54:48.947Z,98997.59
2022-10-17T15:57:29.226Z,98998.91
2022-10-17T15:59:59.316Z,98998.94
2022-10-17T16:02:26.747Z,99002.13
2022-10-17T16:04:54.244Z,98998.63
2022-10-17T16:07:21.902Z,99011.91
2022-10-17T16:09:48.988Z,99002.03
2022-10-17T16:12:27.053Z,99013.69
2022-10-17T16:14:54.239Z,99017.00
2022-10-17T16:17:21.220Z,99013.13
2022-10-17T16:19:48.279Z,99015.97
2022-10-17T16:22:30.164Z,99015.41
2022-10-17T16:25:24.648Z,99021.72
2022-10-17T16:28:00.440Z,99022.53
2022-10-17T16:30:30.506Z,99024.19
2022-10-17T16:33:03.277Z,99036.69
2022-10-17T16:35:34.749Z,99034.13
2022-10-17T16:38:07.079Z,99043.75
2022-10-17T16:40:37.867Z,99042.19
2022-10-17T16:43:05.074Z,99047.63
2022-10-17T16:45:32.210Z,99052.03
2022-10-17T16:47:59.271Z,99053.78
2022-10-17T16:50:26.526Z,99061.28
2022-10-17T16:52:53.480Z,99060.72
2022-10-17T16:55:20.572Z,99059.19
2022-10-17T16:57:49.228Z,99060.00
2022-10-17T17:00:17.997Z,99061.41
2022-10-17T17:02:48.377Z,99051.75
2022-10-17T17:05:15.787Z,99069.75
2022-10-17T17:07:42.874Z,99063.91
2022-10-17T17:10:10.183Z,99068.72
2022-10-17T17:12:37.312Z,99078.41
2022-10-17T17:15:04.789Z,99071.53
2022-10-17T17:17:48.734Z,99081.72
2022-10-17T17:20:18.345Z,99090.78
2022-10-17T17:22:45.347Z,99081.84
2022-10-17T17:25:12.327Z,99081.34
2022-10-17T17:27:39.245Z,99088.28
2022-10-17T17:30:07.750Z,99078.88
2022-10-17T17:32:34.740Z,99078.22
2022-10-17T17:35:02.274Z,99089.03
2022-10-17T17:37:29.780Z,99094.41
2022-10-17T17:39:56.863Z,99093.50
2022-10-17T17:42:23.935Z,99096.88
2022-10-17T17:44:51.062Z,99101.28
2022-10-17T17:47:18.547Z,99101.41
2022-10-17T17:49:45.571Z,99108.06
2022-10-17T17:52:12.652Z,99107.66
2022-10-17T17:54:40.962Z,99103.56
2022-10-17T17:57:08.200Z,99098.34
2022-10-17T17:59:44.661Z,99102.13
2022-10-17T18:02:15.086Z,99095.53
2022-10-17T18:04:44.510Z,99098.88
2022-10-17T18:07:11.541Z,99101.19
2022-10-17T18:09:38.582Z,99111.13
2022-10-17T18:12:08.229Z,99112.22
2022-10-17T18:15:00.017Z,99119.41
2022-10-17T18:17:46.404Z,99119.06
2022-10-17T18:20:42.079Z,99124.81
2022-10-17T18:23:10.675Z,99128.88
2022-10-17T18:25:37.633Z,99135.38
2022-10-17T18:28:10.074Z,99127.59
2022-10-17T18:30:38.902Z,99131.72
2022-10-17T18:33:07.518Z,99128.94
2022-10-17T18:35:35.393Z,99127.88
2022-10-17T18:38:05.324Z,99129.75
2022-10-17T18:40:33.158Z,99135.72
2022-10-17T18:43:00.772Z,99130.94
2022-10-17T18:45:28.018Z,99132.91
2022-10-17T18:47:55.053Z,99130.56
2022-10-17T18:50:26.672Z,99142.63
2022-10-17T18:52:53.759Z,99146.13
2022-10-17T18:55:25.061Z,99141.56
2022-10-17T18:57:55.047Z,99138.75
2022-10-17T19:00:25.084Z,99137.81
2022-10-17T19:02:52.231Z,99139.09
2022-10-17T19:05:19.331Z,99143.22
2022-10-17T19:07:46.572Z,99141.91
2022-10-17T19:10:19.043Z,99146.13
2022-10-17T19:12:52.641Z,99141.31
2022-10-17T19:15:25.140Z,99149.66
2022-10-17T19:18:02.988Z,99151.28
2022-10-17T19:20:33.190Z,99157.50
2022-10-17T19:23:00.537Z,99152.66
2022-10-17T19:25:32.431Z,99153.72
2022-10-17T19:27:59.659Z,99162.53
2022-10-17T19:30:26.582Z,99159.03
2022-10-17T19:32:53.568Z,99159.53
2022-10-17T19:35:20.497Z,99163.91
2022-10-17T19:37:47.536Z,99158.78
2022-10-17T19:40:14.648Z,99154.72
2022-10-17T19:42:41.653Z,99157.94
2022-10-17T19:45:09.978Z,99159.50
2022-10-17T19:47:38.441Z,99159.72
2022-10-17T19:50:06.843Z,99157.41
2022-10-17T19:52:34.252Z,99164.63
2022-10-17T19:55:01.351Z,99160.66
2022-10-17T19:57:28.303Z,99159.69
2022-10-17T19:59:56.151Z,99157.78
2022-10-17T20:02:23.835Z,99151.31
2022-10-17T20:05:00.110Z,99158.69
2022-10-17T20:07:39.804Z,99153.25
2022-10-17T20:10:07.734Z,99154.06
2022-10-17T20:12:34.870Z,99153.31
2022-10-17T20:15:01.949Z,99152.63
2022-10-17T20:17:28.923Z,99157.97
2022-10-17T20:19:55.877Z,99148.34
2022-10-17T20:22:22.824Z,99146.78
2022-10-17T20:24:49.937Z,99144.09
2022-10-17T20:27:17.157Z,99145.41
2022-10-17T20:29:44.282Z,99143.84
2022-10-17T20:32:11.198Z,99150.31
2022-10-17T20:34:38.314Z,99146.34
2022-10-17T20:37:05.473Z,99145.16
2022-10-17T20:39:32.620Z,99157.13
2022-10-17T20:41:59.692Z,99157.38
2022-10-17T20:44:26.712Z,99154.50
2022-10-17T20:47:01.598Z,99159.03
2022-10-17T20:49:31.745Z,99159.56
2022-10-17T20:52:00.599Z,99156.00
2022-10-17T20:54:28.476Z,99152.50
2022-10-17T20:56:57.806Z,99165.63
2022-10-17T20:59:28.145Z,99171.16
2022-10-17T21:01:55.263Z,99172.69
2022-10-17T21:04:44.695Z,99178.59
2022-10-17T21:07:09.263Z,99170.34
2022-10-17T21:09:36.200Z,99169.94
2022-10-17T21:12:05.102Z,99166.81
2022-10-17T21:14:33.334Z,99169.47
2022-10-17T21:17:04.669Z,99173.09
2022-10-17T21:19:32.615Z,99168.44
2022-10-17T21:21:59.704Z,99169.06
2022-10-17T21:24:26.659Z,99170.31
2022-10-17T21:26:55.800Z,99173.00
2022-10-17T21:29:23.878Z,99175.91
2022-10-17T21:31:51.393Z,99180.81
2022-10-17T21:34:23.900Z,99175.84
2022-10-17T21:36:51.856Z,99177.03
2022-10-17T21:39:19.120Z,99175.63
2022-10-17T21:41:46.095Z,99181.06
2022-10-17T21:44:16.765Z,99188.47
2022-10-17T21:46:44.489Z,99181.94
2022-10-17T21:49:14.742Z,99183.38
2022-10-17T21:51:42.524Z,99177.25
2022-10-17T21:54:09.725Z,99183.88
2022-10-17T21:56:37.239Z,99188.38
2022-10-17T21:59:05.522Z,99179.63
2022-10-17T22:01:39.709Z,99178.72
2022-10-17T22:04:12.107Z,99188.28
2022-10-17T22:06:41.924Z,99189.19
2022-10-17T22:09:17.635Z,99184.63
2022-10-17T22:11:49.644Z,99177.84
2022-10-17T22:14:20.036Z,99172.78
2022-10-17T22:16:47.991Z,99175.31
2022-10-17T22:19:24.343Z,99173.94
2022-10-17T22:21:51.551Z,99169.97
2022-10-17T22:26:48.634Z,99162.41
2022-10-17T22:29:16.112Z,99162.50
2022-10-17T22:31:43.056Z,99160.16
2022-10-17T22:34:13.598Z,99162.09
2022-10-17T22:36:40.656Z,99153.63
2022-10-17T22:39:07.676Z,99158.25
2022-10-17T22:41:34.743Z,99151.19
2022-10-17T22:44:01.699Z,99153.94
2022-10-17T22:46:29.065Z,99152.53
2022-10-17T22:48:56.139Z,99157.72
2022-10-17T22:53:50.925Z,99152.00
2022-10-17T22:56:20.661Z,99154.19
2022-10-17T22:58:48.481Z,99147.00
2022-10-17T23:01:22.927Z,99145.53
2022-10-17T23:03:51.109Z,99148.63
2022-10-17T23:06:18.699Z,99145.75
2022-10-17T23:08:46.117Z,99146.28
2022-10-17T23:11:13.313Z,99140.22
2022-10-17T23:13:40.911Z,99144.38
2022-10-17T23:16:08.429Z,99138.25
2022-10-17T23:18:37.242Z,99135.22
2022-10-17T23:21:04.786Z,99133.88
2022-10-17T23:23:31.849Z,99132.66
2022-10-17T23:26:12.452Z,99132.78
2022-10-17T23:28:40.481Z,99127.41
2022-10-17T23:31:20.655Z,99128.78
2022-10-17T23:33:49.966Z,99126.81
2022-10-17T23:36:20.107Z,99126.16
2022-10-17T23:38:48.025Z,99129.25
2022-10-17T23:41:15.658Z,99127.81
2022-10-17T23:43:43.275Z,99123.25
2022-10-17T23:46:10.999Z,99117.50
2022-10-17T23:48:38.934Z,99112.63
2022-10-17T23:51:07.120Z,99112.34
2022-10-17T23:53:34.446Z,99108.91
2022-10-17T23:56:01.538Z,99107.47
2022-10-17T23:58:29.356Z,99114.72
